createdAt,value
2018-12-26T13:39:48.716Z,4.70
2018-12-26T13:42:17.302Z,5.07
2018-12-26T13:44:45.783Z,4.97
2018-12-26T13:47:14.058Z,5.20
2018-12-26T13:49:43.439Z,4.50
2018-12-26T13:52:11.689Z,4.70
2018-12-26T13:54:40.322Z,5.13
2018-12-26T13:57:08.802Z,4.62
2018-12-26T13:59:37.252Z,4.95
2018-12-26T14:02:05.506Z,4.45
2018-12-26T14:04:33.766Z,4.70
2018-12-26T14:07:02.126Z,4.45
2018-12-26T14:09:30.375Z,4.17
2018-12-26T14:11:58.644Z,3.87
2018-12-26T14:14:27.147Z,4.62
2018-12-26T14:16:55.670Z,4.58
2018-12-26T14:19:23.919Z,4.00
2018-12-26T14:21:52.193Z,4.27
2018-12-26T14:24:20.636Z,3.70
2018-12-26T14:26:48.909Z,3.90
2018-12-26T14:29:17.155Z,4.17
2018-12-26T14:31:45.496Z,3.90
2018-12-26T14:34:13.739Z,3.77
2018-12-26T14:36:42.056Z,3.60
2018-12-26T14:39:10.304Z,3.20
2018-12-26T14:41:38.571Z,3.20
2018-12-26T14:44:06.817Z,3.87
2018-12-26T14:46:35.126Z,3.40
2018-12-26T14:49:03.367Z,3.57
2018-12-26T14:51:31.636Z,3.47
2018-12-26T14:53:59.949Z,3.67
2018-12-26T14:56:28.277Z,3.23
2018-12-26T14:58:56.518Z,3.23
2018-12-26T15:01:24.783Z,3.17
2018-12-26T15:03:53.075Z,3.07
2018-12-26T15:06:21.344Z,3.50
2018-12-26T15:08:49.661Z,3.40
2018-12-26T15:11:17.931Z,3.67
2018-12-26T15:13:46.176Z,3.43
2018-12-26T15:16:14.438Z,3.57
2018-12-26T15:18:42.685Z,3.20
2018-12-26T15:21:11.135Z,3.50
2018-12-26T15:23:39.376Z,3.00
2018-12-26T15:26:07.670Z,3.10
2018-12-26T15:28:35.919Z,3.60
2018-12-26T15:31:04.184Z,3.33
2018-12-26T15:33:32.432Z,3.20
2018-12-26T15:36:00.701Z,2.93
2018-12-26T15:38:28.945Z,3.57
2018-12-26T15:40:57.263Z,2.70
2018-12-26T15:43:25.509Z,3.67
2018-12-26T15:45:53.775Z,3.37
2018-12-26T15:48:22.016Z,3.20
2018-12-26T15:50:50.284Z,2.80
2018-12-26T15:53:18.526Z,2.87
2018-12-26T15:55:46.813Z,3.37
2018-12-26T15:58:15.055Z,2.93
2018-12-26T16:00:43.324Z,2.90
2018-12-26T16:03:11.801Z,3.00
2018-12-26T16:05:40.043Z,3.03
2018-12-26T16:08:08.310Z,3.07
2018-12-26T16:10:36.558Z,2.77
2018-12-26T16:13:04.859Z,2.90
2018-12-26T16:15:33.103Z,2.80
2018-12-26T16:18:01.372Z,2.90
2018-12-26T16:20:29.623Z,3.70
2018-12-26T16:22:57.885Z,3.20
2018-12-26T16:25:26.131Z,3.10
2018-12-26T16:27:55.184Z,3.47
2018-12-26T16:30:24.085Z,3.17
2018-12-26T16:34:57.656Z,3.37
2018-12-26T16:37:25.924Z,3.50
2018-12-26T16:39:54.171Z,3.67
